createdAt,value
2023-04-07T00:00:03.460Z,979.60
2023-04-07T00:01:03.472Z,979.60
2023-04-07T00:02:03.737Z,979.74
2023-04-07T00:03:03.803Z,979.58
2023-04-07T00:04:04.499Z,979.66
2023-04-07T00:05:03.912Z,979.77
2023-04-07T00:06:03.752Z,979.72
2023-04-07T00:07:03.834Z,979.69
2023-04-07T00:08:03.900Z,979.52
2023-04-07T00:09:03.957Z,979.55
2023-04-07T00:10:04.194Z,979.66
2023-04-07T00:11:03.036Z,979.72
2023-04-07T00:12:03.165Z,979.69
2023-04-07T00:13:03.197Z,979.64
2023-04-07T00:14:03.136Z,979.58
2023-04-07T00:15:03.276Z,979.67
2023-04-07T00:16:03.280Z,979.55
2023-04-07T00:17:03.251Z,979.58
2023-04-07T00:18:03.319Z,979.56
2023-04-07T00:19:03.357Z,979.61
2023-04-07T00:20:03.329Z,979.58
2023-04-07T00:21:03.410Z,979.58
2023-04-07T00:22:03.349Z,979.72
2023-04-07T00:23:03.361Z,979.75
2023-04-07T00:24:03.547Z,979.59
2023-04-07T00:25:03.574Z,979.72
2023-04-07T00:26:03.531Z,979.59
2023-04-07T00:27:03.682Z,979.56
2023-04-07T00:28:03.642Z,979.67
2023-04-07T00:29:03.789Z,979.67
2023-04-07T00:30:03.883Z,979.56
2023-04-07T00:31:03.112Z,979.56
2023-04-07T00:32:02.902Z,979.42
2023-04-07T00:33:03.057Z,979.65
2023-04-07T00:34:02.942Z,979.45
2023-04-07T00:35:03.093Z,979.34
2023-04-07T00:36:03.235Z,979.45
2023-04-07T00:37:03.097Z,979.45
2023-04-07T00:38:03.214Z,979.40
2023-04-07T00:39:03.206Z,979.40
2023-04-07T00:40:03.328Z,979.40
2023-04-07T00:41:03.343Z,979.48
2023-04-07T00:42:03.563Z,979.43
2023-04-07T00:43:03.560Z,979.54
2023-04-07T00:44:03.563Z,979.35
2023-04-07T00:45:03.639Z,979.49
2023-04-07T00:46:03.682Z,979.40
2023-04-07T00:47:03.695Z,979.57
2023-04-07T00:48:03.877Z,979.29
2023-04-07T00:49:03.796Z,979.38
2023-04-07T00:50:03.878Z,979.24
2023-04-07T00:51:03.917Z,979.27
2023-04-07T00:52:02.941Z,979.32
2023-04-07T00:53:03.178Z,979.27
2023-04-07T00:54:03.111Z,979.38
2023-04-07T00:55:03.206Z,979.07
2023-04-07T00:56:03.129Z,979.21
2023-04-07T00:57:03.224Z,979.16
2023-04-07T00:58:03.146Z,979.21
2023-04-07T00:59:03.168Z,979.16
2023-04-07T01:00:03.108Z,979.19
2023-04-07T01:01:03.117Z,979.19
2023-04-07T01:02:03.464Z,979.22
2023-04-07T01:03:03.988Z,979.08
2023-04-07T01:04:03.421Z,979.19
2023-04-07T01:05:03.425Z,979.16
2023-04-07T01:06:03.464Z,979.08
2023-04-07T01:07:03.465Z,979.08
2023-04-07T01:08:03.540Z,979.08
2023-04-07T01:09:03.600Z,979.08
2023-04-07T01:10:03.647Z,979.14
2023-04-07T01:11:03.831Z,979.00
2023-04-07T01:12:03.835Z,978.97
2023-04-07T01:13:03.826Z,978.97
2023-04-07T01:14:03.783Z,979.00
2023-04-07T01:15:03.899Z,979.08
2023-04-07T01:16:02.993Z,979.14
2023-04-07T01:17:02.994Z,979.00
2023-04-07T01:18:03.048Z,979.00
2023-04-07T01:19:03.130Z,979.00
2023-04-07T01:20:03.124Z,979.03
2023-04-07T01:21:03.088Z,978.97
2023-04-07T01:22:03.186Z,978.86
2023-04-07T01:23:03.254Z,978.84
2023-04-07T01:24:03.273Z,978.97
2023-04-07T01:25:03.227Z,978.98
2023-04-07T01:26:03.263Z,978.92
2023-04-07T01:27:03.289Z,978.87
2023-04-07T01:28:03.295Z,978.95
2023-04-07T01:29:03.404Z,979.06
2023-04-07T01:30:03.577Z,978.92
2023-04-07T01:31:03.580Z,978.95
2023-04-07T01:32:03.984Z,978.89
2023-04-07T01:33:03.896Z,979.03
2023-04-07T01:34:03.779Z,978.98
2023-04-07T01:35:03.903Z,979.03
2023-04-07T01:36:02.939Z,978.95
2023-04-07T01:37:03.071Z,978.95
2023-04-07T01:38:03.067Z,978.90
2023-04-07T01:39:03.117Z,978.87
2023-04-07T01:40:03.229Z,978.90
2023-04-07T01:41:03.187Z,978.90
2023-04-07T01:42:03.325Z,978.79
2023-04-07T01:43:03.312Z,978.90
2023-04-07T01:44:03.429Z,978.93
2023-04-07T01:45:03.220Z,978.79
2023-04-07T01:46:03.143Z,978.79
2023-04-07T01:47:03.297Z,978.81
2023-04-07T01:48:03.381Z,978.81
2023-04-07T01:49:03.277Z,978.79
2023-04-07T01:50:03.325Z,978.76
2023-04-07T01:51:03.353Z,978.82
2023-04-07T01:52:03.439Z,978.79
2023-04-07T01:53:03.512Z,978.76
2023-04-07T01:54:03.520Z,978.73
2023-04-07T01:55:03.642Z,978.82
2023-04-07T01:56:03.618Z,978.76
2023-04-07T01:57:03.727Z,978.82
2023-04-07T01:58:03.675Z,978.82
2023-04-07T01:59:03.661Z,978.79
2023-04-07T02:00:03.702Z,978.76
2023-04-07T02:01:03.873Z,978.85
2023-04-07T02:02:04.121Z,978.82
2023-04-07T02:03:04.093Z,978.85
2023-04-07T02:04:03.952Z,978.82
2023-04-07T02:05:02.877Z,978.88
2023-04-07T02:06:03.035Z,978.85
2023-04-07T02:07:02.992Z,978.68
2023-04-07T02:08:03.137Z,978.71
2023-04-07T02:09:03.024Z,978.90
2023-04-07T02:10:03.228Z,978.82
2023-04-07T02:11:03.197Z,978.88
2023-04-07T02:12:03.313Z,978.71
2023-04-07T02:13:03.325Z,978.77
2023-04-07T02:14:03.393Z,978.71
2023-04-07T02:15:03.480Z,978.85
2023-04-07T02:16:03.548Z,978.68
2023-04-07T02:17:02.981Z,978.77
2023-04-07T02:18:03.096Z,978.66
2023-04-07T02:19:03.890Z,978.71
2023-04-07T02:20:02.958Z,978.77
2023-04-07T02:21:03.071Z,978.69
2023-04-07T02:22:03.162Z,978.69
2023-04-07T02:23:03.288Z,978.66
2023-04-07T02:24:03.406Z,978.63
2023-04-07T02:25:03.518Z,978.72
2023-04-07T02:26:03.468Z,978.66
2023-04-07T02:27:03.483Z,978.66
2023-04-07T02:28:03.480Z,978.69
2023-04-07T02:29:03.555Z,978.69
2023-04-07T02:30:03.612Z,978.69
2023-04-07T02:31:03.639Z,978.56
2023-04-07T02:32:03.701Z,978.83
2023-04-07T02:33:03.791Z,978.61
2023-04-07T02:34:03.736Z,978.58
2023-04-07T02:35:03.927Z,978.43
2023-04-07T02:36:02.972Z,978.50
2023-04-07T02:37:03.062Z,978.61
2023-04-07T02:38:03.106Z,978.53
2023-04-07T02:39:03.108Z,978.55
2023-04-07T02:40:03.081Z,978.44
2023-04-07T02:41:03.147Z,978.44
2023-04-07T02:42:03.101Z,978.53
2023-04-07T02:43:03.159Z,978.50
2023-04-07T02:44:03.212Z,978.56
2023-04-07T02:45:03.345Z,978.58
2023-04-07T02:46:03.356Z,978.47
2023-04-07T02:47:03.296Z,978.64
2023-04-07T02:48:03.308Z,978.50
2023-04-07T02:49:03.356Z,978.53
2023-04-07T02:50:03.399Z,978.59
2023-04-07T02:51:03.404Z,978.56
2023-04-07T02:52:03.318Z,978.56
2023-04-07T02:53:03.428Z,978.48
2023-04-07T02:54:03.376Z,978.62
2023-04-07T02:55:03.518Z,978.45
2023-04-07T02:56:03.530Z,978.50
2023-04-07T02:57:03.605Z,978.56
2023-04-07T02:58:03.700Z,978.43
2023-04-07T02:59:03.875Z,978.48
2023-04-07T03:00:03.037Z,978.62
2023-04-07T03:01:03.088Z,978.43
2023-04-07T03:02:03.701Z,978.51
2023-04-07T03:03:03.426Z,978.51
2023-04-07T03:04:03.473Z,978.45
2023-04-07T03:05:03.216Z,978.41
2023-04-07T03:06:03.173Z,978.38
2023-04-07T03:07:03.136Z,978.51
2023-04-07T03:08:03.178Z,978.54
2023-04-07T03:09:03.281Z,978.48
2023-04-07T03:10:03.269Z,978.51
2023-04-07T03:11:03.316Z,978.45
2023-04-07T03:12:03.541Z,978.54
2023-04-07T03:13:03.541Z,978.51
2023-04-07T03:14:03.552Z,978.51
2023-04-07T03:15:03.647Z,978.54
2023-04-07T03:16:03.786Z,978.48
2023-04-07T03:17:03.944Z,978.48
2023-04-07T03:18:03.904Z,978.56
2023-04-07T03:19:03.897Z,978.48
2023-04-07T03:20:02.965Z,978.41
2023-04-07T03:21:03.041Z,978.45
2023-04-07T03:22:03.174Z,978.51
2023-04-07T03:23:03.154Z,978.45
2023-04-07T03:24:03.125Z,978.59
2023-04-07T03:25:03.149Z,978.27
2023-04-07T03:26:03.127Z,978.54
2023-04-07T03:27:03.235Z,978.48
2023-04-07T03:28:03.192Z,978.57
2023-04-07T03:29:03.235Z,978.35
2023-04-07T03:30:03.213Z,978.44
2023-04-07T03:31:03.358Z,978.54
2023-04-07T03:32:03.277Z,978.41
2023-04-07T03:33:03.461Z,978.41
2023-04-07T03:34:03.396Z,978.41
2023-04-07T03:35:03.444Z,978.36
2023-04-07T03:36:03.532Z,978.30
2023-04-07T03:37:03.488Z,978.33
2023-04-07T03:38:03.704Z,978.39
2023-04-07T03:39:03.672Z,978.30
2023-04-07T03:40:03.694Z,978.36
2023-04-07T03:41:03.712Z,978.19
2023-04-07T03:42:03.870Z,978.14
2023-04-07T03:43:03.801Z,978.17
2023-04-07T03:44:03.004Z,978.28
2023-04-07T03:45:02.985Z,978.31
2023-04-07T03:46:03.096Z,978.33
2023-04-07T03:47:03.083Z,978.22
2023-04-07T03:48:03.136Z,978.25
2023-04-07T03:49:03.181Z,978.31
2023-04-07T03:50:03.154Z,978.17
2023-04-07T03:51:03.203Z,978.17
2023-04-07T03:52:03.135Z,978.25
2023-04-07T03:53:03.184Z,978.25
2023-04-07T03:54:03.229Z,978.19
2023-04-07T03:55:03.249Z,978.25
2023-04-07T03:56:03.460Z,978.22
2023-04-07T03:57:03.453Z,978.11
2023-04-07T03:58:03.368Z,978.28
2023-04-07T03:59:03.499Z,978.20
2023-04-07T04:00:03.650Z,978.11
2023-04-07T04:01:03.522Z,978.34
2023-04-07T04:02:03.869Z,978.22
2023-04-07T04:03:03.921Z,978.17
2023-04-07T04:04:03.975Z,978.25
2023-04-07T04:05:03.809Z,978.17
2023-04-07T04:06:03.710Z,978.36
2023-04-07T04:07:03.810Z,978.17
2023-04-07T04:08:03.860Z,978.14
2023-04-07T04:09:03.883Z,978.25
2023-04-07T04:10:03.011Z,978.34
2023-04-07T04:11:02.937Z,978.25
2023-04-07T04:12:02.968Z,978.25
2023-04-07T04:13:03.074Z,978.31
2023-04-07T04:14:03.088Z,978.26
2023-04-07T04:15:03.013Z,978.49
2023-04-07T04:16:03.143Z,978.34
2023-04-07T04:17:06.264Z,978.28
2023-04-07T04:18:03.354Z,978.31
2023-04-07T04:19:03.131Z,978.31
2023-04-07T04:20:03.283Z,978.42
2023-04-07T04:21:03.265Z,978.34
2023-04-07T04:22:03.205Z,978.44
2023-04-07T04:23:03.355Z,978.42
2023-04-07T04:24:03.290Z,978.29
2023-04-07T04:25:03.587Z,978.50
2023-04-07T04:26:03.561Z,978.40
2023-04-07T04:27:03.570Z,978.40
2023-04-07T04:28:03.657Z,978.37
2023-04-07T04:29:03.810Z,978.43
2023-04-07T04:30:03.863Z,978.34
2023-04-07T04:31:03.162Z,978.29
2023-04-07T04:32:03.132Z,978.35
2023-04-07T04:33:03.447Z,978.37
2023-04-07T04:34:03.320Z,978.32
2023-04-07T04:35:03.498Z,978.32
2023-04-07T04:36:03.461Z,978.50
2023-04-07T04:37:03.725Z,978.43
2023-04-07T04:38:03.644Z,978.37
2023-04-07T04:39:03.804Z,978.32
2023-04-07T04:40:03.935Z,978.37
2023-04-07T04:41:03.028Z,978.26
2023-04-07T04:42:03.061Z,978.37
2023-04-07T04:43:03.188Z,978.29
2023-04-07T04:44:03.370Z,978.37
2023-04-07T04:45:03.266Z,978.37
2023-04-07T04:46:03.369Z,978.37
2023-04-07T04:47:03.432Z,978.37
2023-04-07T04:48:03.597Z,978.18
2023-04-07T04:49:03.921Z,978.29
2023-04-07T04:50:03.836Z,978.40
2023-04-07T04:51:03.077Z,978.34
2023-04-07T04:52:03.118Z,978.28
2023-04-07T04:53:03.029Z,978.34
2023-04-07T04:54:03.004Z,978.28
2023-04-07T04:55:03.104Z,978.31
2023-04-07T04:56:03.155Z,978.42
2023-04-07T04:57:03.174Z,978.31
2023-04-07T04:58:03.072Z,978.37
2023-04-07T04:59:03.156Z,978.34
2023-04-07T05:00:03.152Z,978.25
2023-04-07T05:01:03.322Z,978.28
2023-04-07T05:02:03.526Z,978.28
2023-04-07T05:03:03.716Z,978.28
2023-04-07T05:04:03.732Z,978.34
2023-04-07T05:05:03.511Z,978.36
2023-04-07T05:06:03.333Z,978.36
2023-04-07T05:07:03.325Z,978.22
2023-04-07T05:08:03.251Z,978.28
2023-04-07T05:09:03.446Z,978.39
2023-04-07T05:10:03.430Z,978.42
2023-04-07T05:11:03.442Z,978.39
2023-04-07T05:12:03.527Z,978.36
2023-04-07T05:13:03.516Z,978.19
2023-04-07T05:14:03.568Z,978.27
2023-04-07T05:15:03.816Z,978.29
2023-04-07T05:16:03.692Z,978.47
2023-04-07T05:17:03.791Z,978.26
2023-04-07T05:18:03.883Z,978.28
2023-04-07T05:19:03.887Z,978.19
2023-04-07T05:20:03.926Z,978.27
2023-04-07T05:21:03.914Z,978.22
2023-04-07T05:22:03.158Z,978.21
2023-04-07T05:23:03.087Z,978.21
2023-04-07T05:24:04.036Z,978.18
2023-04-07T05:25:03.027Z,978.12
2023-04-07T05:26:03.064Z,978.22
2023-04-07T05:27:02.965Z,978.25
2023-04-07T05:28:03.161Z,978.11
2023-04-07T05:29:03.105Z,978.07
2023-04-07T05:30:03.158Z,978.05
2023-04-07T05:31:07.502Z,978.32
2023-04-07T05:32:03.859Z,978.27
2023-04-07T05:33:03.954Z,978.18
2023-04-07T05:34:03.860Z,978.24
2023-04-07T05:35:03.055Z,978.29
2023-04-07T05:36:03.817Z,978.29
2023-04-07T05:37:03.574Z,978.21
2023-04-07T05:38:03.687Z,978.10
2023-04-07T05:39:03.836Z,978.38
2023-04-07T05:40:03.868Z,978.07
2023-04-07T05:41:03.820Z,978.26
2023-04-07T05:42:03.806Z,978.29
2023-04-07T05:43:03.820Z,978.32
2023-04-07T05:44:03.793Z,978.28
2023-04-07T05:45:03.372Z,978.31
2023-04-07T05:46:03.400Z,978.16
2023-04-07T05:47:03.199Z,978.18
2023-04-07T05:48:03.334Z,978.23
2023-04-07T05:49:20.336Z,978.09
2023-04-07T05:50:03.314Z,978.28
2023-04-07T05:51:03.261Z,978.14
2023-04-07T05:52:03.317Z,978.19
2023-04-07T05:53:03.351Z,978.13
2023-04-07T05:54:03.488Z,978.07
2023-04-07T05:55:03.636Z,978.29
2023-04-07T05:56:03.707Z,978.34
2023-04-07T05:57:03.808Z,978.23
2023-04-07T05:58:03.977Z,978.17
2023-04-07T05:59:03.855Z,978.28
2023-04-07T06:00:03.170Z,978.30
2023-04-07T06:01:03.064Z,978.27
2023-04-07T06:02:03.203Z,978.27
2023-04-07T06:03:03.404Z,978.29
2023-04-07T06:04:03.117Z,978.35
2023-04-07T06:05:03.173Z,978.37
2023-04-07T06:06:03.039Z,978.31
2023-04-07T06:07:03.103Z,978.49
2023-04-07T06:08:03.011Z,978.36
2023-04-07T06:09:03.025Z,978.54
2023-04-07T06:10:03.121Z,978.47
2023-04-07T06:11:03.197Z,978.49
2023-04-07T06:12:03.130Z,978.48
2023-04-07T06:13:03.338Z,978.47
2023-04-07T06:14:03.230Z,978.37
2023-04-07T06:15:03.254Z,978.46
2023-04-07T06:16:03.214Z,978.35
2023-04-07T06:17:03.463Z,978.40
2023-04-07T06:18:03.340Z,978.52
2023-04-07T06:19:03.448Z,978.44
2023-04-07T06:20:03.529Z,978.45
2023-04-07T06:21:03.617Z,978.62
2023-04-07T06:22:03.575Z,978.50
2023-04-07T06:23:03.589Z,978.64
2023-04-07T06:24:03.722Z,978.64
2023-04-07T06:25:03.669Z,978.73
2023-04-07T06:26:03.720Z,978.62
2023-04-07T06:27:03.769Z,978.87
2023-04-07T06:28:03.806Z,978.87
2023-04-07T06:29:03.777Z,978.96
2023-04-07T06:30:03.858Z,978.87
2023-04-07T06:31:03.926Z,978.90
2023-04-07T06:32:03.950Z,978.87
2023-04-07T06:33:03.049Z,978.96
2023-04-07T06:34:03.964Z,979.04
2023-04-07T06:35:03.927Z,978.98
2023-04-07T06:36:03.906Z,978.98
2023-04-07T06:37:03.103Z,978.97
2023-04-07T06:38:03.069Z,978.77
2023-04-07T06:39:03.256Z,978.96
2023-04-07T06:40:03.094Z,979.10
2023-04-07T06:41:03.055Z,979.09
2023-04-07T06:42:03.126Z,979.12
2023-04-07T06:43:03.167Z,978.86
2023-04-07T06:44:03.412Z,979.11
2023-04-07T06:45:03.389Z,979.11
2023-04-07T06:46:03.417Z,979.13
2023-04-07T06:47:03.546Z,979.10
2023-04-07T06:48:03.608Z,979.18
2023-04-07T06:49:03.453Z,979.13
2023-04-07T06:50:03.637Z,979.24
2023-04-07T06:51:03.502Z,979.32
2023-04-07T06:52:03.650Z,979.20
2023-04-07T06:53:03.804Z,979.09
2023-04-07T06:54:03.746Z,979.23
2023-04-07T06:55:03.728Z,979.31
2023-04-07T06:56:03.909Z,979.28
2023-04-07T06:57:03.003Z,979.25
2023-04-07T06:58:03.009Z,979.25
2023-04-07T06:59:03.214Z,979.39
2023-04-07T07:00:03.194Z,979.33
2023-04-07T07:01:03.267Z,979.39
2023-04-07T07:02:03.517Z,979.38
2023-04-07T07:03:03.584Z,979.52
2023-04-07T07:04:03.356Z,979.49
2023-04-07T07:05:03.323Z,979.49
2023-04-07T07:06:03.227Z,979.43
2023-04-07T07:07:03.176Z,979.52
2023-04-07T07:08:03.174Z,979.49
2023-04-07T07:09:03.347Z,979.54
2023-04-07T07:10:03.399Z,979.68
2023-04-07T07:11:03.389Z,979.63
2023-04-07T07:12:04.600Z,979.66
2023-04-07T07:13:03.508Z,979.68
2023-04-07T07:14:03.570Z,979.49
2023-04-07T07:15:03.585Z,979.65
2023-04-07T07:16:03.654Z,979.77
2023-04-07T07:17:03.840Z,979.79
2023-04-07T07:18:03.864Z,979.79
2023-04-07T07:19:03.769Z,979.76
2023-04-07T07:20:03.751Z,979.73
2023-04-07T07:21:03.780Z,979.84
2023-04-07T07:22:03.874Z,979.84
2023-04-07T07:23:03.851Z,979.81
2023-04-07T07:24:03.891Z,979.91
2023-04-07T07:25:03.960Z,979.88
2023-04-07T07:26:03.960Z,980.08
2023-04-07T07:27:03.924Z,980.07
2023-04-07T07:28:03.900Z,980.04
2023-04-07T07:29:03.895Z,980.02
2023-04-07T07:30:03.970Z,979.98
2023-04-07T07:31:04.010Z,980.18
2023-04-07T07:32:03.045Z,980.12
2023-04-07T07:33:03.226Z,980.09
2023-04-07T07:34:03.279Z,980.15
2023-04-07T07:35:03.241Z,980.09
2023-04-07T07:36:03.313Z,980.03
2023-04-07T07:37:03.433Z,980.22
2023-04-07T07:38:03.508Z,980.31
2023-04-07T07:39:03.506Z,980.12
2023-04-07T07:40:03.692Z,980.22
2023-04-07T07:41:03.647Z,980.28
2023-04-07T07:42:03.634Z,980.25
2023-04-07T07:43:03.751Z,980.24
2023-04-07T07:44:03.735Z,980.38
2023-04-07T07:45:03.692Z,980.41
2023-04-07T07:46:03.810Z,980.30
2023-04-07T07:47:03.290Z,980.41
2023-04-07T07:48:03.515Z,980.49
2023-04-07T07:49:03.417Z,980.41
2023-04-07T07:50:03.554Z,980.38
2023-04-07T07:51:03.523Z,980.43
2023-04-07T07:52:03.506Z,980.51
2023-04-07T07:53:03.618Z,980.34
2023-04-07T07:54:03.762Z,980.40
2023-04-07T07:55:03.566Z,980.42
2023-04-07T07:56:03.695Z,980.39
2023-04-07T07:57:03.548Z,980.39
2023-04-07T07:58:03.661Z,980.33
2023-04-07T07:59:03.757Z,980.38
2023-04-07T08:00:03.821Z,980.38
2023-04-07T08:01:03.797Z,980.47
2023-04-07T08:02:03.120Z,980.44
2023-04-07T08:03:03.138Z,980.58
2023-04-07T08:04:04.106Z,980.63
2023-04-07T08:05:03.149Z,980.69
2023-04-07T08:06:03.156Z,980.54
2023-04-07T08:07:03.070Z,980.63
2023-04-07T08:08:03.154Z,980.63
2023-04-07T08:09:03.044Z,980.63
2023-04-07T08:10:03.053Z,980.65
2023-04-07T08:11:03.037Z,980.71
2023-04-07T08:12:03.164Z,980.59
2023-04-07T08:13:03.247Z,980.62
2023-04-07T08:14:03.398Z,980.59
2023-04-07T08:15:03.428Z,980.62
2023-04-07T08:16:03.633Z,980.65
2023-04-07T08:17:03.581Z,980.70
2023-04-07T08:18:03.664Z,980.73
2023-04-07T08:19:03.812Z,980.76
2023-04-07T08:20:03.837Z,980.70
2023-04-07T08:21:03.898Z,980.76
2023-04-07T08:22:03.956Z,980.70
2023-04-07T08:23:03.836Z,980.81
2023-04-07T08:24:03.916Z,980.73
2023-04-07T08:25:02.998Z,980.76
2023-04-07T08:26:03.204Z,980.81
2023-04-07T08:27:03.119Z,980.81
2023-04-07T08:28:03.287Z,980.75
2023-04-07T08:29:03.201Z,980.78
2023-04-07T08:30:03.511Z,980.81
2023-04-07T08:31:03.603Z,980.84
2023-04-07T08:32:03.375Z,980.81
2023-04-07T08:33:03.584Z,980.86
2023-04-07T08:34:03.946Z,980.86
2023-04-07T08:35:03.537Z,980.88
2023-04-07T08:36:03.651Z,980.80
2023-04-07T08:37:03.473Z,980.82
2023-04-07T08:38:03.563Z,980.85
2023-04-07T08:39:03.722Z,980.88
2023-04-07T08:40:03.916Z,980.79
2023-04-07T08:41:03.859Z,980.94
2023-04-07T08:42:03.907Z,980.85
2023-04-07T08:43:03.179Z,981.05
2023-04-07T08:44:03.406Z,980.99
2023-04-07T08:45:03.310Z,980.96
2023-04-07T08:46:03.190Z,980.96
2023-04-07T08:47:03.376Z,980.96
2023-04-07T08:48:03.583Z,980.96
2023-04-07T08:49:03.614Z,981.10
2023-04-07T08:50:03.689Z,981.01
2023-04-07T08:51:03.697Z,980.87
2023-04-07T08:52:07.886Z,980.98
2023-04-07T08:53:07.370Z,980.93
2023-04-07T08:54:03.306Z,981.07
2023-04-07T08:55:03.319Z,980.89
2023-04-07T08:56:03.447Z,981.04
2023-04-07T08:57:03.294Z,981.03
2023-04-07T08:58:03.504Z,980.95
2023-04-07T08:59:03.459Z,981.06
2023-04-07T09:00:03.447Z,981.00
2023-04-07T09:01:03.585Z,980.97
2023-04-07T09:02:03.704Z,981.11
2023-04-07T09:03:03.720Z,981.14
2023-04-07T09:04:03.684Z,981.05
2023-04-07T09:05:03.828Z,981.02
2023-04-07T09:06:03.823Z,981.05
2023-04-07T09:07:04.029Z,981.05
2023-04-07T09:08:03.932Z,981.02
2023-04-07T09:09:03.958Z,981.02
2023-04-07T09:10:03.047Z,981.02
2023-04-07T09:11:03.065Z,981.05
2023-04-07T09:12:03.029Z,981.13
2023-04-07T09:13:03.150Z,981.19
2023-04-07T09:14:03.845Z,980.96
2023-04-07T09:15:03.971Z,981.10
2023-04-07T09:16:04.056Z,980.96
2023-04-07T09:17:03.009Z,980.99
2023-04-07T09:18:03.076Z,981.04
2023-04-07T09:19:03.248Z,981.04
2023-04-07T09:20:03.309Z,981.21
2023-04-07T09:21:03.028Z,980.98
2023-04-07T09:22:03.080Z,981.04
2023-04-07T09:23:03.116Z,981.15
2023-04-07T09:24:03.101Z,981.15
2023-04-07T09:25:03.203Z,981.15
2023-04-07T09:26:03.372Z,981.20
2023-04-07T09:27:03.334Z,981.15
2023-04-07T09:28:03.351Z,981.20
2023-04-07T09:29:03.362Z,981.37
2023-04-07T09:30:03.255Z,981.26
2023-04-07T09:31:03.362Z,981.32
2023-04-07T09:32:03.611Z,981.32
2023-04-07T09:33:03.419Z,981.23
2023-04-07T09:34:03.499Z,981.37
2023-04-07T09:35:03.694Z,981.54
2023-04-07T09:36:03.572Z,981.26
2023-04-07T09:37:03.630Z,981.45
2023-04-07T09:38:03.553Z,981.45
2023-04-07T09:39:03.616Z,981.48
2023-04-07T09:40:03.743Z,981.34
2023-04-07T09:41:03.685Z,981.42
2023-04-07T09:42:03.732Z,981.45
2023-04-07T09:43:03.768Z,981.42
2023-04-07T09:44:03.827Z,981.33
2023-04-07T09:45:03.721Z,981.33
2023-04-07T09:46:03.842Z,981.42
2023-04-07T09:47:03.906Z,981.45
2023-04-07T09:48:03.072Z,981.45
2023-04-07T09:49:03.026Z,981.47
2023-04-07T09:50:03.151Z,981.61
2023-04-07T09:51:03.110Z,981.53
2023-04-07T09:52:03.040Z,981.63
2023-04-07T09:53:03.181Z,981.56
2023-04-07T09:54:03.260Z,981.53
2023-04-07T09:55:03.251Z,981.58
2023-04-07T09:56:03.385Z,981.61
2023-04-07T09:57:03.331Z,981.72
2023-04-07T09:58:03.290Z,981.78
2023-04-07T09:59:03.476Z,981.58
2023-04-07T10:00:03.414Z,981.66
2023-04-07T10:01:03.592Z,981.72
2023-04-07T10:02:04.080Z,981.60
2023-04-07T10:03:04.023Z,981.71
2023-04-07T10:04:03.805Z,981.74
2023-04-07T10:05:03.026Z,981.88
2023-04-07T10:06:03.264Z,981.68
2023-04-07T10:07:03.252Z,981.82
2023-04-07T10:08:03.294Z,981.94
2023-04-07T10:09:03.345Z,981.85
2023-04-07T10:10:03.400Z,981.71
2023-04-07T10:11:03.444Z,981.62
2023-04-07T10:12:03.448Z,981.79
2023-04-07T10:13:03.517Z,981.82
2023-04-07T10:14:03.687Z,981.76
2023-04-07T10:15:03.758Z,981.76
2023-04-07T10:16:03.832Z,981.99
2023-04-07T10:17:03.320Z,981.87
2023-04-07T10:18:03.458Z,981.76
2023-04-07T10:19:03.304Z,981.93
2023-04-07T10:20:03.354Z,981.87
2023-04-07T10:21:03.302Z,981.84
2023-04-07T10:22:03.420Z,981.93
2023-04-07T10:23:03.376Z,981.64
2023-04-07T10:24:03.498Z,981.72
2023-04-07T10:25:03.516Z,981.81
2023-04-07T10:26:03.411Z,981.87
2023-04-07T10:27:03.584Z,981.84
2023-04-07T10:28:03.586Z,981.89
2023-04-07T10:29:03.785Z,981.95
2023-04-07T10:30:04.079Z,981.66
2023-04-07T10:31:04.078Z,981.78
2023-04-07T10:32:02.940Z,981.86
2023-04-07T10:33:03.155Z,981.89
2023-04-07T10:34:03.136Z,981.83
2023-04-07T10:35:03.207Z,981.75
2023-04-07T10:36:03.278Z,981.77
2023-04-07T10:37:03.102Z,981.89
2023-04-07T10:38:03.204Z,981.74
2023-04-07T10:39:03.120Z,981.69
2023-04-07T10:40:03.183Z,981.83
2023-04-07T10:41:03.220Z,981.83
2023-04-07T10:42:03.480Z,981.88
2023-04-07T10:43:03.437Z,981.68
2023-04-07T10:44:03.539Z,981.80
2023-04-07T10:45:03.685Z,981.83
2023-04-07T10:46:03.742Z,981.74
2023-04-07T10:47:03.619Z,981.91
2023-04-07T10:48:03.945Z,981.85
2023-04-07T10:49:03.719Z,981.85
2023-04-07T10:50:03.806Z,981.88
2023-04-07T10:51:03.797Z,981.80
2023-04-07T10:52:03.950Z,981.88
2023-04-07T10:53:03.885Z,981.91
2023-04-07T10:54:02.912Z,981.97
2023-04-07T10:55:03.087Z,981.94
2023-04-07T10:56:03.058Z,981.88
2023-04-07T10:57:03.147Z,982.00
2023-04-07T10:58:03.192Z,981.91
2023-04-07T10:59:03.160Z,981.91
2023-04-07T11:00:03.333Z,981.94
2023-04-07T11:01:03.490Z,982.03
2023-04-07T11:02:03.603Z,981.88
2023-04-07T11:03:03.837Z,981.97
2023-04-07T11:04:03.767Z,981.91
2023-04-07T11:05:03.635Z,982.06
2023-04-07T11:06:03.672Z,982.09
2023-04-07T11:07:03.723Z,982.06
2023-04-07T11:08:03.839Z,982.00
2023-04-07T11:09:02.984Z,982.06
2023-04-07T11:10:02.975Z,981.94
2023-04-07T11:11:02.961Z,982.09
2023-04-07T11:12:03.034Z,982.11
2023-04-07T11:13:03.043Z,982.09
2023-04-07T11:14:03.130Z,982.09
2023-04-07T11:15:03.131Z,982.03
2023-04-07T11:16:03.156Z,982.09
2023-04-07T11:17:03.335Z,982.11
2023-04-07T11:18:03.454Z,982.11
2023-04-07T11:19:03.450Z,982.17
2023-04-07T11:20:03.459Z,982.17
2023-04-07T11:21:03.395Z,982.02
2023-04-07T11:22:03.612Z,982.08
2023-04-07T11:23:03.794Z,982.14
2023-04-07T11:24:03.729Z,981.97
2023-04-07T11:25:03.791Z,982.00
2023-04-07T11:26:03.758Z,982.05
2023-04-07T11:27:03.812Z,982.17
2023-04-07T11:28:03.733Z,982.14
2023-04-07T11:29:03.870Z,982.20
2023-04-07T11:30:02.974Z,982.00
2023-04-07T11:31:03.756Z,982.14
2023-04-07T11:32:03.829Z,982.20
2023-04-07T11:33:02.954Z,982.11
2023-04-07T11:34:03.132Z,982.20
2023-04-07T11:35:03.226Z,982.17
2023-04-07T11:36:03.293Z,982.11
2023-04-07T11:37:03.509Z,982.09
2023-04-07T11:38:03.493Z,982.14
2023-04-07T11:39:03.738Z,982.11
2023-04-07T11:40:03.630Z,982.11
2023-04-07T11:41:03.651Z,982.09
2023-04-07T11:42:03.714Z,982.23
2023-04-07T11:43:03.856Z,982.17
2023-04-07T11:44:03.956Z,982.09
2023-04-07T11:45:03.037Z,982.09
2023-04-07T11:46:03.147Z,982.09
2023-04-07T11:47:03.089Z,982.03
2023-04-07T11:48:03.031Z,981.94
2023-04-07T11:49:02.972Z,982.06
2023-04-07T11:50:02.990Z,982.00
2023-04-07T11:51:02.955Z,982.00
2023-04-07T11:52:03.298Z,981.91
2023-04-07T11:53:03.275Z,981.94
2023-04-07T11:54:03.178Z,981.97
2023-04-07T11:55:03.271Z,982.11
2023-04-07T11:56:03.361Z,982.02
2023-04-07T11:57:03.437Z,981.88
2023-04-07T11:58:03.416Z,981.94
2023-04-07T11:59:03.436Z,982.14
2023-04-07T12:00:03.408Z,982.02
2023-04-07T12:01:03.352Z,982.14
2023-04-07T12:02:03.574Z,981.88
2023-04-07T12:03:04.063Z,981.91
2023-04-07T12:04:04.154Z,982.03
2023-04-07T12:05:03.702Z,981.83
2023-04-07T12:06:03.593Z,981.86
2023-04-07T12:07:03.587Z,981.74
2023-04-07T12:08:03.660Z,981.83
2023-04-07T12:09:03.783Z,981.91
2023-04-07T12:10:03.778Z,982.00
2023-04-07T12:11:03.806Z,981.82
2023-04-07T12:12:03.892Z,981.91
2023-04-07T12:13:02.958Z,982.02
2023-04-07T12:14:02.925Z,981.97
2023-04-07T12:15:03.171Z,981.97
2023-04-07T12:16:03.155Z,981.94
2023-04-07T12:17:03.143Z,981.88
2023-04-07T12:18:03.303Z,981.88
2023-04-07T12:19:03.157Z,981.68
2023-04-07T12:20:03.148Z,981.74
2023-04-07T12:21:03.202Z,981.85
2023-04-07T12:22:03.263Z,981.82
2023-04-07T12:23:03.489Z,981.65
2023-04-07T12:24:03.708Z,981.76
2023-04-07T12:25:03.604Z,981.76
2023-04-07T12:26:03.821Z,981.51
2023-04-07T12:27:03.936Z,981.73
2023-04-07T12:28:03.883Z,981.70